Time;durP1;ratioP1;P1;durP2;ratioP2;P2;SDS_P1;SDS_P2;PMS_P1;PMS_P2;Temp;Humidity;BMP_temperature;BMP_pressure;BME280_temperature;BME280_humidity;BME280_pressure;Samples;Min_cycle;Max_cycle;Signal;HPM_P1;HPM_P2
2022/08/26 00:01:48;;;;;;;7.10;6.43;;;19.10;99.90;;;;;;4916223;29;20197;-74
2022/08/26 00:04:15;;;;;;;6.03;5.50;;;19.10;99.90;;;;;;4917898;29;20674;-72
2022/08/26 00:06:40;;;;;;;6.33;5.93;;;19.00;99.90;;;;;;4916781;29;20620;-70
2022/08/26 00:09:06;;;;;;;7.07;6.47;;;19.00;99.90;;;;;;4915949;29;20426;-74
2022/08/26 00:11:32;;;;;;;6.47;5.93;;;19.00;99.90;;;;;;4915646;29;20449;-73
2022/08/26 00:13:58;;;;;;;6.97;6.27;;;19.00;99.90;;;;;;4917864;29;20179;-74
2022/08/26 00:16:26;;;;;;;6.50;6.00;;;19.00;99.90;;;;;;4917055;29;20212;-75
2022/08/26 00:18:52;;;;;;;5.80;5.40;;;19.00;99.90;;;;;;4916646;29;20783;-74
2022/08/26 00:21:18;;;;;;;6.10;5.60;;;19.00;99.90;;;;;;4916776;29;20545;-74
2022/08/26 00:23:44;;;;;;;6.67;6.17;;;18.90;99.90;;;;;;4917996;29;20241;-74
2022/08/26 00:26:10;;;;;;;7.83;7.10;;;18.90;99.90;;;;;;4917925;29;20505;-75
2022/08/26 00:28:36;;;;;;;6.33;5.73;;;18.80;99.90;;;;;;4916083;29;20422;-74
2022/08/26 00:31:02;;;;;;;5.63;5.23;;;18.80;99.90;;;;;;4915427;29;21026;-73
2022/08/26 00:33:28;;;;;;;6.63;6.10;;;18.80;99.90;;;;;;4900872;29;20460;-74
2022/08/26 00:35:54;;;;;;;6.57;5.87;;;18.70;99.90;;;;;;4917327;29;20446;-73
2022/08/26 00:38:21;;;;;;;7.07;6.37;;;18.70;99.90;;;;;;4915869;29;20214;-71
2022/08/26 00:40:51;;;;;;;6.67;6.07;;;18.70;99.90;;;;;;4884158;29;20214;-74
2022/08/26 00:43:17;;;;;;;6.70;6.10;;;18.70;99.90;;;;;;4915784;29;21089;-73
2022/08/26 00:45:51;;;;;;;7.00;6.40;;;18.70;99.90;;;;;;4900160;29;20422;-75
2022/08/26 00:48:20;;;;;;;6.30;5.80;;;18.60;99.90;;;;;;4917288;29;20504;-73
2022/08/26 00:50:52;;;;;;;6.53;5.93;;;18.60;99.90;;;;;;4916470;29;20426;-74
2022/08/26 00:53:22;;;;;;;6.80;6.20;;;18.60;99.90;;;;;;4915884;29;20482;-73
2022/08/26 00:56:19;;;;;;;6.90;6.20;;;18.50;99.90;;;;;;4915829;29;20426;-73
2022/08/26 00:58:46;;;;;;;7.37;6.67;;;18.50;99.90;;;;;;4915708;29;20994;-74
2022/08/26 02:31:51;;;;;;;7.23;6.33;;;18.00;99.90;;;;;;5481811;23;20503;-73
2022/08/26 02:34:24;;;;;;;6.60;6.00;;;18.00;99.90;;;;;;4953257;28;20503;-74
2022/08/26 02:36:50;;;;;;;9.07;5.87;;;17.90;99.90;;;;;;4953727;28;20448;-74
2022/08/26 02:39:15;;;;;;;7.00;6.50;;;17.90;99.90;;;;;;4953301;28;20491;-74
2022/08/26 02:41:42;;;;;;;6.43;5.93;;;17.90;99.90;;;;;;4952479;28;20220;-73
2022/08/26 02:44:08;;;;;;;5.60;5.30;;;17.90;99.90;;;;;;4952603;28;20184;-74
2022/08/26 02:46:33;;;;;;;6.27;5.77;;;17.80;99.90;;;;;;4943833;28;20437;-74
2022/08/26 02:49:00;;;;;;;6.63;5.93;;;17.80;99.90;;;;;;4952708;29;20811;-71
2022/08/26 02:51:25;;;;;;;7.60;6.73;;;17.80;99.90;;;;;;4951981;29;20199;-74
2022/08/26 02:53:51;;;;;;;7.57;6.90;;;17.80;99.90;;;;;;4953193;29;20413;-74
2022/08/26 02:56:17;;;;;;;6.50;6.00;;;17.80;99.90;;;;;;4952850;29;20184;-74
2022/08/26 02:58:42;;;;;;;6.70;6.30;;;17.70;99.90;;;;;;4952753;29;20177;-74
2022/08/26 03:01:20;;;;;;;6.67;6.10;;;17.70;99.90;;;;;;4951313;29;20215;-72
2022/08/26 03:03:46;;;;;;;7.50;6.80;;;17.70;99.90;;;;;;4953026;29;20228;-73
2022/08/26 03:06:11;;;;;;;9.27;6.13;;;17.70;99.90;;;;;;4953085;29;20893;-74
2022/08/26 03:08:38;;;;;;;7.20;6.50;;;17.60;99.90;;;;;;4952871;29;20236;-74
2022/08/26 03:11:03;;;;;;;6.80;6.23;;;17.60;99.90;;;;;;4951523;29;20212;-75
2022/08/26 03:13:29;;;;;;;7.80;7.00;;;17.60;99.90;;;;;;4952753;29;20451;-73
2022/08/26 03:15:55;;;;;;;7.93;6.70;;;17.60;99.90;;;;;;4951077;29;20204;-74
2022/08/26 03:18:20;;;;;;;8.03;6.27;;;17.50;99.90;;;;;;4950276;29;20184;-74
2022/08/26 03:20:46;;;;;;;8.33;6.47;;;17.50;99.90;;;;;;4951895;29;20711;-74
2022/08/26 03:23:12;;;;;;;7.03;6.43;;;17.50;99.90;;;;;;4952379;29;20181;-74
2022/08/26 03:25:38;;;;;;;6.60;6.10;;;17.40;99.90;;;;;;4952547;29;20173;-72
2022/08/26 03:28:04;;;;;;;8.13;6.57;;;17.40;99.90;;;;;;4951857;29;20165;-74
2022/08/26 03:30:39;;;;;;;10.20;6.80;;;17.40;99.90;;;;;;4952133;29;20478;-74
2022/08/26 03:33:05;;;;;;;6.90;6.27;;;17.40;99.90;;;;;;4952277;29;20246;-74
2022/08/26 03:35:31;;;;;;;7.20;6.50;;;17.40;99.90;;;;;;4952115;29;20412;-75
2022/08/26 03:37:58;;;;;;;10.87;6.80;;;17.30;99.90;;;;;;4952328;29;20708;-73
2022/08/26 03:40:24;;;;;;;6.40;5.80;;;17.30;99.90;;;;;;4951172;29;20474;-73
2022/08/26 03:42:51;;;;;;;7.70;7.00;;;17.30;99.90;;;;;;4952190;29;20447;-74
2022/08/26 03:45:18;;;;;;;8.03;7.37;;;17.30;99.90;;;;;;4952142;29;20444;-72
2022/08/26 03:47:44;;;;;;;8.03;7.23;;;17.30;99.90;;;;;;4952299;29;20439;-74
2022/08/26 03:50:12;;;;;;;7.73;6.80;;;17.20;99.90;;;;;;4951989;29;20412;-74
2022/08/26 03:52:37;;;;;;;7.50;6.67;;;17.20;99.90;;;;;;4951138;29;20580;-71
2022/08/26 03:55:05;;;;;;;8.57;7.77;;;17.20;99.90;;;;;;4952009;29;20448;-74
2022/08/26 03:57:31;;;;;;;8.00;7.20;;;17.20;99.90;;;;;;4952223;29;20211;-72
2022/08/26 03:59:57;;;;;;;6.90;6.30;;;17.20;99.90;;;;;;4952443;29;20822;-76
2022/08/26 04:02:23;;;;;;;7.70;7.00;;;17.10;99.90;;;;;;4950747;29;20444;-74
2022/08/26 04:04:48;;;;;;;10.20;7.30;;;17.10;99.90;;;;;;4952378;29;20759;-74
2022/08/26 04:07:14;;;;;;;8.03;7.20;;;17.10;99.90;;;;;;4952084;29;20471;-74
2022/08/26 04:09:40;;;;;;;7.67;6.97;;;17.00;99.90;;;;;;4951374;29;20200;-76
2022/08/26 04:12:05;;;;;;;8.87;7.63;;;17.00;99.90;;;;;;4951197;29;20564;-74
2022/08/26 04:14:31;;;;;;;7.73;6.70;;;17.00;99.90;;;;;;4952270;29;20660;-74
2022/08/26 04:16:57;;;;;;;7.07;6.37;;;17.00;99.90;;;;;;4952091;29;20240;-74
2022/08/26 04:19:24;;;;;;;6.93;6.33;;;17.00;99.90;;;;;;4951577;29;20173;-75
2022/08/26 04:21:51;;;;;;;8.50;7.00;;;17.00;99.90;;;;;;4951477;29;20212;-73
2022/08/26 04:24:19;;;;;;;8.27;7.50;;;17.00;99.90;;;;;;4951746;29;20850;-71
2022/08/26 04:26:45;;;;;;;8.43;7.40;;;16.90;99.90;;;;;;4952251;29;20435;-74
2022/08/26 04:29:16;;;;;;;7.80;7.03;;;16.90;99.90;;;;;;4950019;29;20416;-76
2022/08/26 04:31:42;;;;;;;11.17;7.30;;;17.00;99.90;;;;;;4951357;29;20255;-74
2022/08/26 04:34:09;;;;;;;16.73;7.30;;;16.90;99.90;;;;;;4951580;29;20420;-73
2022/08/26 04:36:34;;;;;;;10.30;7.40;;;16.90;99.90;;;;;;4952268;29;20917;-74
2022/08/26 04:39:01;;;;;;;9.50;7.10;;;16.90;99.90;;;;;;4951478;29;20427;-74
2022/08/26 04:41:27;;;;;;;8.40;7.70;;;16.90;99.90;;;;;;4951046;29;20209;-74
2022/08/26 04:43:53;;;;;;;8.17;7.47;;;16.90;99.90;;;;;;4951516;29;20452;-74
2022/08/26 04:46:21;;;;;;;10.00;8.07;;;16.90;99.90;;;;;;4954285;28;20472;-74
2022/08/26 04:48:49;;;;;;;9.37;7.80;;;16.90;99.90;;;;;;4955617;29;20213;-75
2022/08/26 04:51:15;;;;;;;9.23;7.23;;;16.90;99.90;;;;;;4954365;29;20459;-75
2022/08/26 04:53:40;;;;;;;11.10;7.10;;;17.00;99.90;;;;;;4955464;29;20417;-77
2022/08/26 04:56:07;;;;;;;9.60;6.70;;;17.10;99.90;;;;;;4954716;29;20187;-74
2022/08/26 04:58:33;;;;;;;8.17;7.13;;;17.10;99.90;;;;;;4955319;29;20204;-74
2022/08/26 05:00:58;;;;;;;9.47;7.30;;;17.10;99.90;;;;;;4954182;29;20558;-72
2022/08/26 05:03:26;;;;;;;10.77;7.57;;;17.10;99.90;;;;;;4954929;29;20348;-75
2022/08/26 05:05:52;;;;;;;9.13;7.33;;;17.20;99.90;;;;;;4955389;29;20545;-75
2022/08/26 05:08:19;;;;;;;8.90;7.80;;;17.30;99.90;;;;;;4954680;29;20404;-73
2022/08/26 05:10:53;;;;;;;10.27;8.03;;;17.30;99.90;;;;;;4954506;29;20948;-73
2022/08/26 05:13:19;;;;;;;10.63;7.70;;;17.40;99.90;;;;;;4954848;29;20801;-73
2022/08/26 05:15:46;;;;;;;8.10;7.40;;;17.40;99.90;;;;;;4954784;29;20424;-73
2022/08/26 05:18:13;;;;;;;8.47;7.47;;;17.50;99.90;;;;;;4948800;29;20571;-73
2022/08/26 05:20:41;;;;;;;8.73;7.90;;;17.70;99.90;;;;;;4961751;28;20459;-73
2022/08/26 05:23:07;;;;;;;7.37;6.73;;;17.90;99.90;;;;;;4952679;29;20792;-74
2022/08/26 05:25:37;;;;;;;7.20;6.60;;;18.20;99.90;;;;;;4953305;28;20408;-74
2022/08/26 05:28:03;;;;;;;9.10;7.43;;;18.60;99.90;;;;;;4952374;28;20200;-75
2022/08/26 05:30:30;;;;;;;7.67;6.63;;;19.00;99.90;;;;;;4952795;29;20828;-74
2022/08/26 05:32:55;;;;;;;11.60;6.97;;;19.30;99.90;;;;;;4952658;28;20212;-73
2022/08/26 05:35:21;;;;;;;8.57;7.77;;;19.60;99.90;;;;;;4953227;29;20499;-74
2022/08/26 05:37:48;;;;;;;8.63;7.30;;;19.80;99.90;;;;;;4954548;28;20221;-74
2022/08/26 05:40:14;;;;;;;8.30;6.80;;;19.70;99.90;;;;;;4955619;29;20219;-73
2022/08/26 05:42:39;;;;;;;7.33;6.63;;;19.70;99.90;;;;;;4955259;29;20432;-72
2022/08/26 05:45:05;;;;;;;12.40;7.33;;;19.70;99.90;;;;;;4956121;29;20412;-74
2022/08/26 05:47:31;;;;;;;8.13;7.33;;;19.70;99.90;;;;;;4955914;28;20638;-73
2022/08/26 05:49:57;;;;;;;9.70;7.30;;;19.70;99.90;;;;;;4954594;29;20452;-71
2022/08/26 05:52:22;;;;;;;17.73;7.50;;;20.00;99.90;;;;;;4953781;29;20732;-73
2022/08/26 05:54:48;;;;;;;10.50;7.67;;;20.30;99.90;;;;;;4954511;29;20521;-73
2022/08/26 05:57:13;;;;;;;15.60;8.40;;;20.50;99.90;;;;;;4953728;28;20172;-73
2022/08/26 05:59:39;;;;;;;12.23;7.87;;;20.50;99.90;;;;;;4953741;28;20230;-73
2022/08/26 06:02:06;;;;;;;8.97;8.17;;;20.40;99.90;;;;;;4953289;29;20189;-73
2022/08/26 06:04:31;;;;;;;10.43;7.67;;;20.30;99.90;;;;;;4954173;29;20173;-75
2022/08/26 06:06:57;;;;;;;10.50;8.53;;;20.10;99.90;;;;;;4954070;29;20417;-70
2022/08/26 06:09:23;;;;;;;12.30;8.50;;;20.00;99.90;;;;;;4953903;28;20208;-73
2022/08/26 06:11:49;;;;;;;8.93;8.17;;;20.00;99.90;;;;;;4953391;29;20275;-73
2022/08/26 06:14:16;;;;;;;13.73;8.30;;;19.90;99.90;;;;;;4953410;29;20413;-73
2022/08/26 06:16:45;;;;;;;10.27;7.00;;;19.90;99.90;;;;;;4954215;28;20559;-73
2022/08/26 06:19:12;;;;;;;8.23;6.60;;;19.80;99.90;;;;;;4953606;28;20417;-74
2022/08/26 06:21:39;;;;;;;8.73;7.23;;;19.80;99.90;;;;;;4953118;28;20452;-71
2022/08/26 06:26:56;;;;;;;10.40;8.13;;;19.80;99.90;;;;;;4954279;29;21020;-73
2022/08/26 06:29:24;;;;;;;7.80;6.80;;;19.90;99.90;;;;;;4953444;28;20417;-73
2022/08/26 06:31:51;;;;;;;10.43;6.70;;;20.00;99.90;;;;;;4952986;28;20456;-74
2022/08/26 06:34:16;;;;;;;12.40;8.13;;;20.10;99.90;;;;;;4952936;28;20859;-73
2022/08/26 06:36:43;;;;;;;9.30;6.80;;;20.30;99.90;;;;;;4953789;29;20858;-73
2022/08/26 06:39:11;;;;;;;9.97;7.20;;;20.30;99.90;;;;;;4953305;28;20182;-74
2022/08/26 06:41:38;;;;;;;8.10;7.30;;;20.30;99.90;;;;;;4952832;28;20487;-72
2022/08/26 06:44:05;;;;;;;8.13;7.30;;;20.30;99.90;;;;;;4952960;28;20442;-73
2022/08/26 06:46:31;;;;;;;11.90;7.90;;;20.30;99.90;;;;;;4953565;28;20453;-74
2022/08/26 06:48:57;;;;;;;10.53;7.70;;;20.50;99.90;;;;;;4952499;28;20827;-71
2022/08/26 06:51:28;;;;;;;8.73;7.00;;;20.60;99.90;;;;;;4952392;29;20556;-75
2022/08/26 06:53:58;;;;;;;8.37;7.47;;;20.70;99.90;;;;;;4953124;28;20184;-73
2022/08/26 06:56:26;;;;;;;8.43;7.60;;;20.80;99.90;;;;;;4953222;28;20988;-73
2022/08/26 06:58:52;;;;;;;11.13;8.73;;;20.80;99.90;;;;;;4953122;28;20432;-73
2022/08/26 07:01:29;;;;;;;8.93;7.33;;;20.90;99.90;;;;;;4959305;28;20459;-71
2022/08/26 07:03:57;;;;;;;10.50;7.90;;;21.00;99.90;;;;;;4966880;28;20226;-75
2022/08/26 07:06:24;;;;;;;9.73;8.00;;;21.30;99.90;;;;;;4958028;28;20416;-73
2022/08/26 07:08:51;;;;;;;9.97;7.13;;;21.40;99.90;;;;;;4961364;28;20438;-73
2022/08/26 07:11:18;;;;;;;10.83;8.03;;;21.60;99.90;;;;;;4961236;28;20447;-72
2022/08/26 07:13:44;;;;;;;9.70;7.90;;;21.80;99.90;;;;;;4953127;28;20930;-73
2022/08/26 07:16:12;;;;;;;11.40;8.70;;;22.10;99.90;;;;;;4952691;28;20428;-75
2022/08/26 07:18:40;;;;;;;8.43;7.73;;;22.30;99.90;;;;;;4953057;28;20432;-74
2022/08/26 07:21:08;;;;;;;7.83;6.97;;;22.50;99.90;;;;;;4951291;28;20566;-73
2022/08/26 07:23:35;;;;;;;7.97;7.13;;;22.70;99.90;;;;;;4953030;28;20427;-73
2022/08/26 07:26:09;;;;;;;7.17;6.57;;;22.80;99.90;;;;;;4953013;28;20435;-74
2022/08/26 07:28:35;;;;;;;7.70;7.10;;;23.00;99.90;;;;;;4952525;28;20771;-74
2022/08/26 07:31:06;;;;;;;12.17;7.90;;;23.20;99.90;;;;;;4951778;28;20452;-72
2022/08/26 07:33:31;;;;;;;14.07;8.63;;;23.30;99.90;;;;;;4952667;28;20551;-74
2022/08/26 07:35:57;;;;;;;9.07;8.17;;;23.60;99.90;;;;;;4952796;28;20432;-70
2022/08/26 07:38:22;;;;;;;15.00;8.40;;;23.70;99.90;;;;;;4951892;28;20239;-73
2022/08/26 07:40:48;;;;;;;7.93;7.13;;;23.90;99.90;;;;;;4951835;28;20239;-73
2022/08/26 07:43:14;;;;;;;10.83;7.70;;;24.10;99.90;;;;;;4952370;28;20177;-73
2022/08/26 07:45:40;;;;;;;12.50;8.10;;;24.30;99.90;;;;;;4952665;28;20177;-73
2022/08/26 07:48:05;;;;;;;8.43;7.23;;;24.30;99.90;;;;;;4952428;29;20173;-73
2022/08/26 07:50:31;;;;;;;8.23;6.93;;;24.50;99.90;;;;;;4951784;28;20184;-74
2022/08/26 07:53:00;;;;;;;12.00;6.80;;;24.70;99.90;;;;;;4952098;28;20690;-70
2022/08/26 07:55:26;;;;;;;10.33;7.60;;;24.90;99.90;;;;;;4952722;28;20427;-73
2022/08/26 07:57:52;;;;;;;10.97;7.80;;;25.10;99.90;;;;;;4952626;28;20427;-73
2022/08/26 08:00:22;;;;;;;10.87;6.03;;;25.30;99.90;;;;;;4951866;28;20471;-71
2022/08/26 08:02:48;;;;;;;13.23;6.70;;;25.40;99.90;;;;;;4951394;28;20673;-74
2022/08/26 08:05:15;;;;;;;8.77;6.40;;;25.60;99.90;;;;;;4952170;28;20419;-73
2022/08/26 08:07:43;;;;;;;7.80;6.60;;;25.80;99.90;;;;;;4952401;28;20188;-73
2022/08/26 08:10:12;;;;;;;11.63;7.27;;;25.90;99.90;;;;;;4951655;28;20427;-74
2022/08/26 08:12:39;;;;;;;9.93;7.03;;;26.30;99.90;;;;;;4951621;28;20487;-71
2022/08/26 08:15:05;;;;;;;13.83;6.20;;;26.50;99.90;;;;;;4951943;28;20419;-74
2022/08/26 08:17:31;;;;;;;10.93;6.83;;;26.50;99.90;;;;;;4952308;28;20503;-73
2022/08/26 08:19:57;;;;;;;7.90;6.63;;;26.40;99.90;;;;;;4952907;28;20558;-73
2022/08/26 08:22:23;;;;;;;10.03;6.80;;;26.50;99.90;;;;;;4955371;28;20199;-75
2022/08/26 08:24:49;;;;;;;11.37;6.83;;;26.40;99.90;;;;;;4955716;28;20165;-73
2022/08/26 08:27:14;;;;;;;9.73;6.20;;;26.40;99.90;;;;;;4955904;28;20778;-73
2022/08/26 08:29:40;;;;;;;19.37;6.67;;;26.20;99.90;;;;;;4955888;28;20183;-74
2022/08/26 08:32:05;;;;;;;10.70;7.77;;;25.90;99.90;;;;;;4954921;28;20737;-74
2022/08/26 08:34:31;;;;;;;9.33;6.83;;;25.80;99.90;;;;;;4955332;28;20195;-75
2022/08/26 08:36:57;;;;;;;13.70;7.30;;;25.60;99.90;;;;;;4955655;28;20732;-72
2022/08/26 08:39:23;;;;;;;13.00;6.90;;;25.70;99.90;;;;;;4955526;28;20185;-73
2022/08/26 08:42:19;;;;;;;8.07;6.23;;;26.00;99.90;;;;;;4954963;28;20224;-73
2022/08/26 08:44:47;;;;;;;14.60;7.43;;;26.60;99.90;;;;;;4955683;28;20423;-73
2022/08/26 08:47:31;;;;;;;17.70;6.83;;;27.50;99.90;;;;;;4955557;28;20409;-74
2022/08/26 08:50:02;;;;;;;8.10;7.30;;;28.10;99.90;;;;;;4955274;28;20424;-74
2022/08/26 08:52:33;;;;;;;9.60;6.90;;;28.40;99.90;;;;;;4953603;29;20941;-73
2022/08/26 08:55:00;;;;;;;8.90;5.70;;;28.90;99.90;;;;;;4955472;28;20416;-74
2022/08/26 08:57:41;;;;;;;7.60;6.00;;;29.30;99.90;;;;;;4955064;28;21248;-72
2022/08/26 09:00:16;;;;;;;6.57;4.63;;;29.30;99.90;;;;;;4954993;28;20482;-74
2022/08/26 09:02:51;;;;;;;6.10;4.10;;;29.70;99.90;;;;;;4954776;28;20442;-74
2022/08/26 09:05:30;;;;;;;4.47;4.10;;;30.20;99.90;;;;;;4955047;28;20420;-75
2022/08/26 09:08:11;;;;;;;8.23;4.77;;;30.60;99.90;;;;;;4954165;28;20428;-73
2022/08/26 09:10:44;;;;;;;9.50;4.93;;;30.80;99.90;;;;;;4952916;28;20440;-76
2022/08/26 09:13:13;;;;;;;11.77;4.70;;;31.10;99.90;;;;;;4955037;28;20420;-74
2022/08/26 09:15:51;;;;;;;6.77;5.27;;;31.50;99.90;;;;;;4955265;28;20428;-74
2022/08/26 09:18:25;;;;;;;8.43;4.97;;;32.20;99.90;;;;;;4954968;28;20416;-74
2022/08/26 09:21:02;;;;;;;8.60;4.93;;;32.20;99.90;;;;;;4954408;28;20541;-74
2022/08/26 09:23:28;;;;;;;10.07;4.87;;;32.00;99.90;;;;;;4954644;28;20424;-74
2022/08/26 09:25:58;;;;;;;12.27;6.40;;;31.50;99.90;;;;;;4956783;28;20420;-73
2022/08/26 09:28:25;;;;;;;12.60;5.13;;;31.10;99.90;;;;;;4956048;28;20413;-74
2022/08/26 09:31:10;;;;;;;10.20;5.33;;;30.80;99.90;;;;;;4954713;28;20409;-76
2022/08/26 09:33:36;;;;;;;6.13;5.60;;;30.70;99.90;;;;;;4955830;28;20485;-74
2022/08/26 09:36:31;;;;;;;6.23;5.10;;;30.80;99.90;;;;;;4955479;28;20420;-74
2022/08/26 09:38:57;;;;;;;9.90;5.83;;;30.50;99.90;;;;;;4955040;28;20782;-71
2022/08/26 09:41:27;;;;;;;9.00;5.87;;;31.00;99.90;;;;;;4953979;28;20474;-74
2022/08/26 09:44:19;;;;;;;10.27;7.23;;;31.70;99.90;;;;;;4954997;28;20192;-75
2022/08/26 09:46:55;;;;;;;8.23;5.73;;;32.00;99.90;;;;;;4953226;28;20428;-74
2022/08/26 09:49:36;;;;;;;10.77;6.10;;;31.90;99.90;;;;;;4954435;28;20463;-75
2022/08/26 09:52:18;;;;;;;12.23;7.00;;;32.10;99.90;;;;;;4953865;28;20443;-75
2022/08/26 09:54:57;;;;;;;11.70;5.40;;;32.60;99.90;;;;;;4953611;28;20439;-74
2022/08/26 09:57:29;;;;;;;14.27;6.47;;;33.20;99.90;;;;;;4954329;28;20863;-76
2022/08/26 09:59:55;;;;;;;18.30;6.90;;;33.40;99.90;;;;;;4954465;28;20436;-75
2022/08/26 10:02:32;;;;;;;17.30;7.10;;;33.90;99.90;;;;;;4953293;28;20495;-75
2022/08/26 10:05:01;;;;;;;13.70;6.63;;;34.20;99.90;;;;;;4954324;28;20416;-72
2022/08/26 10:07:49;;;;;;;13.17;6.70;;;33.90;99.90;;;;;;4954013;28;20427;-75
2022/08/26 10:10:39;;;;;;;16.80;8.07;;;34.10;99.90;;;;;;4954210;28;20423;-74
2022/08/26 10:13:11;;;;;;;12.17;6.67;;;33.80;99.90;;;;;;4953913;28;20511;-73
2022/08/26 10:15:51;;;;;;;16.33;6.47;;;34.10;99.90;;;;;;4954469;28;20431;-74
2022/08/26 10:18:23;;;;;;;14.10;7.40;;;34.40;99.90;;;;;;4953778;28;20419;-74
2022/08/26 10:21:05;;;;;;;10.37;5.90;;;34.50;99.90;;;;;;4953342;28;20462;-75
2022/08/26 10:23:36;;;;;;;9.10;5.87;;;33.80;99.90;;;;;;4954084;28;20424;-73
2022/08/26 10:26:20;;;;;;;12.93;6.63;;;33.60;99.90;;;;;;4954624;28;20412;-75
2022/08/26 10:29:11;;;;;;;10.00;6.50;;;34.30;99.90;;;;;;4957655;28;20418;-74
2022/08/26 10:32:03;;;;;;;10.33;5.67;;;34.70;99.90;;;;;;4954607;28;20452;-74
2022/08/26 10:34:30;;;;;;;15.20;6.00;;;35.30;99.90;;;;;;4954529;28;20417;-73
2022/08/26 10:37:38;;;;;;;13.90;6.33;;;36.10;99.90;;;;;;4954619;28;20459;-74
2022/08/26 10:40:18;;;;;;;13.03;5.47;;;36.60;99.40;;;;;;4940142;28;20844;-75
2022/08/26 10:43:12;;;;;;;14.80;6.57;;;37.20;97.90;;;;;;4954369;28;20443;-74
2022/08/26 10:45:46;;;;;;;17.87;7.00;;;37.80;96.80;;;;;;4955214;29;20788;-74
2022/08/26 10:48:17;;;;;;;13.87;6.10;;;37.50;95.80;;;;;;4952431;28;20416;-75
2022/08/26 10:50:45;;;;;;;8.37;5.63;;;37.90;95.80;;;;;;4952249;28;20420;-74
2022/08/26 10:53:43;;;;;;;6.67;5.70;;;38.10;95.00;;;;;;4952944;28;20566;-74
2022/08/26 10:56:21;;;;;;;8.30;5.70;;;38.20;93.80;;;;;;4949519;29;20424;-74
2022/08/26 10:59:08;;;;;;;6.70;5.23;;;38.00;92.80;;;;;;4952741;28;20424;-76
2022/08/26 11:01:42;;;;;;;13.13;6.03;;;36.80;93.20;;;;;;4952018;29;20474;-73
2022/08/26 11:04:49;;;;;;;12.00;6.60;;;36.20;93.50;;;;;;4952359;29;20499;-75
2022/08/26 11:07:27;;;;;;;12.50;6.57;;;36.00;94.30;;;;;;4893159;29;20423;-75
2022/08/26 11:09:53;;;;;;;10.50;6.33;;;35.40;94.80;;;;;;4893287;29;20418;-74
2022/08/26 11:12:33;;;;;;;11.57;6.83;;;35.00;94.80;;;;;;4925352;28;20440;-74
2022/08/26 11:14:59;;;;;;;11.03;6.10;;;34.30;96.00;;;;;;4952433;29;20264;-72
2022/08/26 11:17:43;;;;;;;8.00;6.47;;;34.00;95.70;;;;;;4952434;28;20475;-74
2022/08/26 11:20:32;;;;;;;16.03;7.10;;;33.30;96.70;;;;;;4952354;29;20822;-73
2022/08/26 11:23:22;;;;;;;9.53;5.87;;;33.30;97.50;;;;;;4952399;28;20809;-73
2022/08/26 11:26:00;;;;;;;13.53;6.67;;;34.00;97.10;;;;;;4952532;29;20499;-74
2022/08/26 11:28:42;;;;;;;16.00;6.90;;;34.20;96.20;;;;;;4952222;28;20474;-73
2022/08/26 11:31:32;;;;;;;13.10;6.13;;;34.70;96.30;;;;;;4951131;28;20444;-74
2022/08/26 11:34:02;;;;;;;8.57;5.73;;;34.90;95.60;;;;;;4945729;29;20440;-72
2022/08/26 11:36:37;;;;;;;11.80;5.43;;;35.40;95.10;;;;;;4954249;28;20416;-73
2022/08/26 11:39:15;;;;;;;6.77;5.10;;;35.50;94.50;;;;;;4952027;28;20426;-74
2022/08/26 11:41:46;;;;;;;10.50;6.27;;;35.10;94.40;;;;;;4951513;28;20495;-74
2022/08/26 11:44:17;;;;;;;6.40;5.80;;;34.50;94.20;;;;;;4951689;28;20430;-74
2022/08/26 11:46:55;;;;;;;9.53;5.40;;;34.00;95.00;;;;;;4951316;28;20867;-73
2022/08/26 11:49:21;;;;;;;15.83;6.53;;;33.80;94.60;;;;;;4951660;28;20829;-74
2022/08/26 11:51:47;;;;;;;7.80;6.00;;;34.10;94.20;;;;;;4947317;28;20444;-74
2022/08/26 11:54:19;;;;;;;12.93;6.63;;;33.70;93.50;;;;;;4946927;28;20920;-74
2022/08/26 11:56:48;;;;;;;9.73;6.63;;;33.40;94.40;;;;;;4948264;28;20189;-75
2022/08/26 11:59:21;;;;;;;18.00;8.50;;;33.10;95.00;;;;;;4948875;28;20416;-75
2022/08/26 12:01:49;;;;;;;9.97;5.93;;;32.80;96.00;;;;;;4948302;28;20471;-75
2022/08/26 12:04:27;;;;;;;7.30;6.33;;;33.10;95.90;;;;;;4949242;28;20939;-73
2022/08/26 12:06:53;;;;;;;10.93;6.40;;;33.30;95.30;;;;;;4949365;28;20474;-74
2022/08/26 12:09:28;;;;;;;16.37;6.60;;;33.20;95.10;;;;;;4948363;28;21028;-72
2022/08/26 12:12:20;;;;;;;10.10;6.00;;;33.30;94.90;;;;;;4948063;28;20212;-74
2022/08/26 12:14:46;;;;;;;12.30;5.43;;;33.20;94.80;;;;;;4947591;28;21000;-74
2022/08/26 12:17:15;;;;;;;12.93;6.17;;;32.90;94.70;;;;;;4946324;29;20420;-76
2022/08/26 12:19:41;;;;;;;10.63;6.47;;;33.00;94.60;;;;;;4948407;29;20185;-74
2022/08/26 12:22:22;;;;;;;7.97;5.87;;;33.00;95.30;;;;;;4947970;28;20562;-74
2022/08/26 12:24:51;;;;;;;6.97;5.70;;;33.00;93.90;;;;;;4949378;28;20416;-73
2022/08/26 12:27:22;;;;;;;11.77;6.10;;;32.70;95.40;;;;;;4930742;29;20425;-73
2022/08/26 12:30:03;;;;;;;13.63;7.97;;;32.30;95.70;;;;;;4943625;29;20431;-73
2022/08/26 12:32:30;;;;;;;15.60;6.93;;;32.10;97.60;;;;;;4946182;29;21080;-73
2022/08/26 12:34:57;;;;;;;10.13;6.87;;;32.00;98.60;;;;;;4951453;28;20416;-73
2022/08/26 12:37:32;;;;;;;14.43;7.37;;;31.80;98.40;;;;;;4950151;28;20424;-74
2022/08/26 12:40:26;;;;;;;15.17;7.50;;;31.50;98.80;;;;;;4949836;28;20507;-72
2022/08/26 12:42:52;;;;;;;10.07;6.67;;;31.50;99.50;;;;;;4951191;28;20805;-74
2022/08/26 12:45:37;;;;;;;17.80;7.50;;;31.80;99.60;;;;;;4951026;28;20416;-72
2022/08/26 12:48:23;;;;;;;15.93;8.80;;;31.70;98.90;;;;;;4951452;28;20416;-73
2022/08/26 12:50:50;;;;;;;9.20;7.37;;;31.80;99.60;;;;;;4950414;28;20420;-74
2022/08/26 12:53:27;;;;;;;20.20;8.23;;;31.90;99.30;;;;;;4951693;28;20449;-73
2022/08/26 12:56:00;;;;;;;16.73;8.27;;;31.50;99.60;;;;;;4952096;28;20411;-73
2022/08/26 12:58:30;;;;;;;17.63;8.63;;;31.10;99.90;;;;;;4951743;28;20486;-73
2022/08/26 13:01:20;;;;;;;19.03;7.43;;;30.80;99.90;;;;;;4951235;28;20462;-73
2022/08/26 13:03:47;;;;;;;12.80;7.60;;;30.70;99.90;;;;;;4945765;29;20436;-74
2022/08/26 13:06:22;;;;;;;24.57;8.37;;;30.60;99.90;;;;;;4950303;28;20427;-74
2022/08/26 13:08:59;;;;;;;18.33;8.50;;;30.60;99.90;;;;;;4955045;29;20408;-73
2022/08/26 13:11:24;;;;;;;16.47;7.80;;;30.40;99.90;;;;;;4953184;28;20911;-73
2022/08/26 13:13:54;;;;;;;17.40;7.70;;;30.30;99.90;;;;;;4954566;28;20832;-71
2022/08/26 13:16:21;;;;;;;11.20;7.60;;;30.30;99.90;;;;;;4954869;28;20192;-73
2022/08/26 13:18:48;;;;;;;15.33;7.77;;;30.30;99.90;;;;;;4955061;28;20812;-73
2022/08/26 13:21:20;;;;;;;12.70;7.80;;;30.20;99.90;;;;;;4953962;28;20499;-72
2022/08/26 13:23:46;;;;;;;21.83;8.87;;;30.00;99.90;;;;;;4954939;28;20500;-72
2022/08/26 13:26:12;;;;;;;14.83;7.03;;;30.00;99.90;;;;;;4955014;28;20423;-72
2022/08/26 13:28:38;;;;;;;15.40;6.60;;;29.90;99.90;;;;;;4954324;28;20416;-70
2022/08/26 13:31:03;;;;;;;11.47;6.23;;;29.90;99.90;;;;;;4953754;28;20209;-72
2022/08/26 13:33:30;;;;;;;15.73;6.87;;;29.80;99.90;;;;;;4954581;28;20227;-73
2022/08/26 13:35:57;;;;;;;11.40;6.13;;;29.70;99.90;;;;;;4955151;28;20185;-72
2022/08/26 13:38:22;;;;;;;13.20;6.67;;;29.70;99.90;;;;;;4954229;28;20425;-73
2022/08/26 13:40:48;;;;;;;10.27;5.60;;;29.60;99.90;;;;;;4954054;29;20459;-73
2022/08/26 13:43:14;;;;;;;15.47;6.60;;;29.50;99.70;;;;;;4954568;29;20198;-73
2022/08/26 13:45:39;;;;;;;14.20;7.30;;;29.40;99.90;;;;;;4954612;28;20228;-73
2022/08/26 13:48:06;;;;;;;17.93;6.90;;;29.30;99.90;;;;;;4952679;29;20177;-73
2022/08/26 13:50:33;;;;;;;14.80;6.53;;;29.40;99.90;;;;;;4953866;28;20184;-72
2022/08/26 13:52:59;;;;;;;14.77;6.20;;;29.30;99.90;;;;;;4954370;29;20520;-72
2022/08/26 13:55:26;;;;;;;18.97;8.13;;;29.30;99.90;;;;;;4954570;28;20419;-73
2022/08/26 13:57:52;;;;;;;12.60;6.83;;;29.30;99.90;;;;;;4954758;28;20440;-71
2022/08/26 14:00:19;;;;;;;10.47;6.07;;;29.30;99.90;;;;;;4953629;28;20951;-70
2022/08/26 14:02:45;;;;;;;18.30;8.43;;;29.50;99.90;;;;;;4953744;28;20628;-73
2022/08/26 14:05:11;;;;;;;14.33;8.27;;;29.70;99.90;;;;;;4953934;28;20416;-72
2022/08/26 14:07:36;;;;;;;10.83;7.00;;;29.70;99.90;;;;;;4954152;28;20673;-72
2022/08/26 14:10:02;;;;;;;15.23;7.67;;;29.80;99.90;;;;;;4953970;29;20427;-73
2022/08/26 14:12:28;;;;;;;20.77;7.83;;;29.80;99.90;;;;;;4952890;29;20275;-73
2022/08/26 14:14:53;;;;;;;23.33;8.07;;;29.90;99.90;;;;;;4954278;29;20173;-71
2022/08/26 14:17:21;;;;;;;10.37;7.40;;;29.80;99.90;;;;;;4953392;28;20180;-71
2022/08/26 14:19:49;;;;;;;15.40;7.20;;;29.80;99.90;;;;;;4953642;28;20180;-73
2022/08/26 14:22:16;;;;;;;14.77;7.43;;;29.60;99.90;;;;;;4951238;29;20440;-71
2022/08/26 14:24:43;;;;;;;13.60;6.73;;;29.40;99.90;;;;;;4948470;28;20413;-72
2022/08/26 14:27:09;;;;;;;18.53;7.90;;;29.30;99.90;;;;;;4952112;28;20416;-72
2022/08/26 14:29:35;;;;;;;13.57;6.93;;;29.20;99.90;;;;;;4953783;28;20423;-73
2022/08/26 14:32:08;;;;;;;13.93;6.30;;;29.10;99.90;;;;;;4952668;28;20444;-73